createdAt,value
2022-09-04T00:00:03.707Z,7.72
2022-09-04T00:02:49.907Z,7.85
2022-09-04T00:05:39.169Z,9.55
2022-09-04T00:08:24.689Z,10.13
2022-09-04T00:10:55.016Z,6.82
2022-09-04T00:13:27.742Z,7.88
2022-09-04T00:16:02.524Z,7.93
2022-09-04T00:18:42.542Z,8.23
2022-09-04T00:21:26.455Z,8.02
2022-09-04T00:23:59.426Z,7.10
2022-09-04T00:26:58.148Z,8.52
2022-09-04T00:29:56.476Z,7.63
2022-09-04T00:32:42.167Z,7.30
2022-09-04T00:35:31.308Z,7.55
2022-09-04T00:38:13.333Z,7.60
2022-09-04T00:41:00.250Z,8.20
2022-09-04T00:43:56.967Z,6.32
2022-09-04T00:46:47.776Z,6.95
2022-09-04T00:49:22.964Z,6.78
2022-09-04T00:51:56.112Z,7.85
2022-09-04T00:55:01.624Z,7.20
2022-09-04T00:58:02.762Z,6.07
2022-09-04T01:00:30.789Z,6.75
2022-09-04T01:03:07.221Z,6.53
2022-09-04T01:06:02.316Z,5.75
2022-09-04T01:08:59.950Z,6.28
2022-09-04T01:11:38.343Z,6.05
2022-09-04T01:14:14.537Z,6.45
2022-09-04T01:17:03.426Z,6.22
2022-09-04T01:20:01.592Z,6.80
2022-09-04T01:22:48.496Z,6.32
2022-09-04T01:25:43.419Z,6.00
2022-09-04T01:28:20.519Z,8.75
2022-09-04T01:31:15.601Z,5.50
2022-09-04T01:36:28.314Z,7.28
2022-09-04T01:39:01.155Z,5.53
2022-09-04T01:41:38.206Z,5.53
2022-09-04T01:44:08.231Z,5.88
2022-09-04T01:47:23.444Z,5.28
2022-09-04T01:50:05.942Z,6.35
2022-09-04T01:52:48.885Z,5.03
2022-09-04T01:55:48.145Z,4.82
2022-09-04T01:58:36.503Z,5.32
2022-09-04T02:01:10.981Z,5.50
2022-09-04T02:03:56.786Z,5.00
2022-09-04T02:06:56.158Z,4.93
2022-09-04T02:09:41.988Z,4.78
2022-09-04T02:12:27.397Z,5.82
2022-09-04T02:15:13.498Z,5.70
2022-09-04T02:17:45.359Z,5.35
2022-09-04T02:20:26.479Z,4.53
2022-09-04T02:23:00.095Z,4.90
2022-09-04T02:25:32.682Z,5.07
2022-09-04T02:28:27.148Z,4.57
2022-09-04T02:31:15.468Z,4.57
2022-09-04T02:33:58.598Z,4.03
2022-09-04T02:36:38.723Z,5.95
2022-09-04T02:39:23.470Z,4.60
2022-09-04T02:45:12.823Z,4.88
2022-09-04T02:48:13.774Z,5.97
2022-09-04T02:51:22.660Z,4.88
2022-09-04T02:54:05.584Z,4.35
2022-09-04T02:56:43.754Z,3.83
2022-09-04T02:59:41.561Z,4.15
2022-09-04T03:02:41.625Z,4.63
2022-09-04T03:05:23.077Z,4.25
2022-09-04T03:08:08.702Z,5.75
2022-09-04T03:10:56.371Z,5.22
2022-09-04T03:13:46.662Z,4.70
2022-09-04T03:16:28.335Z,4.65
2022-09-04T03:19:10.564Z,5.22
2022-09-04T03:22:13.682Z,4.00
2022-09-04T03:25:12.123Z,4.53
2022-09-04T03:27:39.541Z,4.90
2022-09-04T03:30:09.888Z,4.50
2022-09-04T03:32:54.240Z,4.70
2022-09-04T03:35:49.346Z,5.13
2022-09-04T03:41:14.717Z,4.72
2022-09-04T03:43:55.558Z,4.50
2022-09-04T03:46:50.134Z,4.90
2022-09-04T03:49:44.736Z,5.03
2022-09-04T03:52:24.944Z,4.53
2022-09-04T03:55:10.279Z,4.82
2022-09-04T03:57:54.401Z,5.65
2022-09-04T04:00:23.101Z,5.90
2022-09-04T04:03:13.627Z,4.43
2022-09-04T04:05:56.606Z,5.22
2022-09-04T04:08:56.805Z,5.15
2022-09-04T04:11:41.348Z,4.78
2022-09-04T04:14:22.464Z,4.65
2022-09-04T04:17:04.722Z,6.70
2022-09-04T04:20:22.131Z,4.70
2022-09-04T04:23:05.506Z,4.63
2022-09-04T04:25:52.623Z,4.55
2022-09-04T04:28:27.932Z,4.72
2022-09-04T04:31:14.424Z,5.72
2022-09-04T04:33:52.542Z,4.80
2022-09-04T04:36:45.542Z,4.85
2022-09-04T04:39:30.979Z,4.70
2022-09-04T04:42:17.211Z,4.78
2022-09-04T04:45:36.257Z,6.28
2022-09-04T04:48:15.307Z,5.25
2022-09-04T04:50:49.572Z,5.03
2022-09-04T04:53:31.981Z,5.20
2022-09-04T04:56:16.166Z,6.47
2022-09-04T04:59:08.137Z,5.43
2022-09-04T05:01:56.234Z,5.05
2022-09-04T05:04:41.066Z,5.18
2022-09-04T05:10:02.810Z,5.18
2022-09-04T05:12:57.878Z,4.70
2022-09-04T05:18:11.508Z,5.20
2022-09-04T05:20:56.942Z,6.38
2022-09-04T05:23:39.288Z,5.68
2022-09-04T05:26:36.034Z,5.80
2022-09-04T05:29:03.270Z,5.47
2022-09-04T05:31:57.750Z,5.22
2022-09-04T05:34:55.994Z,6.00
2022-09-04T05:37:53.483Z,5.78
2022-09-04T05:40:46.645Z,7.53
2022-09-04T05:43:33.532Z,5.90
2022-09-04T05:46:19.385Z,6.68
2022-09-04T05:49:04.927Z,5.80
2022-09-04T05:51:53.224Z,5.90
2022-09-04T05:54:33.183Z,6.63
2022-09-04T05:57:24.107Z,6.47
2022-09-04T06:00:25.068Z,6.88
2022-09-04T06:03:16.268Z,7.38
2022-09-04T06:05:46.517Z,6.22
2022-09-04T06:08:28.605Z,6.78
2022-09-04T06:11:39.661Z,6.40
2022-09-04T06:14:48.568Z,6.38
2022-09-04T06:17:36.683Z,6.30
2022-09-04T06:20:30.953Z,7.03
2022-09-04T06:23:19.705Z,6.97
2022-09-04T06:26:19.727Z,6.80
2022-09-04T06:29:09.753Z,8.32
2022-09-04T06:32:03.090Z,9.13
2022-09-04T06:34:45.771Z,9.93
2022-09-04T06:37:36.105Z,11.30
2022-09-04T06:40:16.663Z,11.93
2022-09-04T06:42:55.375Z,13.80
2022-09-04T06:45:32.545Z,13.27
2022-09-04T06:48:18.635Z,11.85
2022-09-04T06:51:23.963Z,13.45
2022-09-04T06:54:00.349Z,17.40
2022-09-04T06:56:37.982Z,15.90
2022-09-04T06:59:20.291Z,17.08
2022-09-04T07:02:06.420Z,17.80
2022-09-04T07:04:47.036Z,16.50
2022-09-04T07:07:41.751Z,16.67
2022-09-04T07:10:14.427Z,17.92
2022-09-04T07:13:15.592Z,19.70
2022-09-04T07:15:49.115Z,20.73
2022-09-04T07:19:01.748Z,24.27
2022-09-04T07:22:10.707Z,22.42
2022-09-04T07:25:03.640Z,23.35
2022-09-04T07:27:43.275Z,23.58
2022-09-04T07:30:16.175Z,26.42
2022-09-04T07:32:58.465Z,29.15
2022-09-04T07:35:45.575Z,25.35
2022-09-04T07:38:34.333Z,28.45
2022-09-04T07:41:17.742Z,28.05
2022-09-04T07:44:13.905Z,27.60
2022-09-04T07:47:05.325Z,35.85
2022-09-04T07:49:37.859Z,29.50
2022-09-04T07:52:10.965Z,37.00
2022-09-04T07:54:52.516Z,29.23
2022-09-04T07:57:40.624Z,26.13
2022-09-04T08:00:15.360Z,29.05
2022-09-04T08:02:57.962Z,24.50
2022-09-04T08:05:25.303Z,24.15
2022-09-04T08:08:11.023Z,24.65
2022-09-04T08:11:02.592Z,23.88
2022-09-04T08:13:51.272Z,24.55
2022-09-04T08:16:47.779Z,33.47
2022-09-04T08:19:28.912Z,39.42
2022-09-04T08:21:57.167Z,39.17
2022-09-04T08:24:52.589Z,42.30
2022-09-04T08:27:47.767Z,48.30
2022-09-04T08:30:19.536Z,44.70
2022-09-04T08:33:05.333Z,48.08
2022-09-04T08:35:51.094Z,44.42
2022-09-04T08:38:50.170Z,48.05
2022-09-04T08:41:54.792Z,51.50
2022-09-04T08:44:59.156Z,44.42
2022-09-04T08:48:03.188Z,42.22
2022-09-04T08:50:39.747Z,42.22
2022-09-04T08:53:29.561Z,39.53
2022-09-04T08:56:16.921Z,43.45
2022-09-04T08:59:18.555Z,38.20
2022-09-04T09:02:04.161Z,41.30
2022-09-04T09:04:36.176Z,37.60
2022-09-04T09:07:06.194Z,35.88
2022-09-04T09:09:48.662Z,37.65
2022-09-04T09:12:53.351Z,39.80
2022-09-04T09:15:50.964Z,36.30
2022-09-04T09:18:40.544Z,38.17
2022-09-04T09:21:34.666Z,46.58
2022-09-04T09:24:59.575Z,54.78
2022-09-04T09:27:45.583Z,47.63
2022-09-04T09:30:19.467Z,39.50
2022-09-04T09:33:07.797Z,38.80
2022-09-04T09:35:57.896Z,38.92
2022-09-04T09:38:41.719Z,37.83
2022-09-04T09:41:37.191Z,33.47
2022-09-04T09:44:29.436Z,36.38
2022-09-04T09:47:27.569Z,35.10
2022-09-04T09:50:00.662Z,37.03
2022-09-04T09:53:18.909Z,37.42
2022-09-04T09:55:49.152Z,35.20
2022-09-04T09:58:39.513Z,34.25
2022-09-04T10:01:21.997Z,34.88
2022-09-04T10:04:21.526Z,32.05
2022-09-04T10:07:18.449Z,36.00
2022-09-04T10:10:24.805Z,34.42
2022-09-04T10:13:19.587Z,36.03
2022-09-04T10:15:55.473Z,31.63
2022-09-04T10:18:53.154Z,36.42
2022-09-04T10:21:57.082Z,33.03
2022-09-04T10:24:41.938Z,31.63
2022-09-04T10:27:34.649Z,31.17
2022-09-04T10:30:18.492Z,38.17
2022-09-04T10:32:58.593Z,39.17
2022-09-04T10:35:42.031Z,38.92
2022-09-04T10:39:18.636Z,35.50
2022-09-04T10:42:00.796Z,37.05
2022-09-04T10:44:54.013Z,29.70
2022-09-04T10:47:51.296Z,26.92
2022-09-04T10:50:56.772Z,27.23
2022-09-04T10:53:56.519Z,30.88
2022-09-04T10:56:36.423Z,30.05
2022-09-04T10:59:15.799Z,28.17
2022-09-04T11:02:12.540Z,25.20
2022-09-04T11:05:07.071Z,22.92
2022-09-04T11:08:13.827Z,21.42
2022-09-04T11:10:47.552Z,23.95
2022-09-04T11:13:23.842Z,20.42
2022-09-04T11:16:14.854Z,18.50
2022-09-04T11:19:13.108Z,20.25
2022-09-04T11:21:59.012Z,18.10
2022-09-04T11:24:43.789Z,26.75
2022-09-04T11:27:44.847Z,27.17
2022-09-04T11:30:27.504Z,21.02
2022-09-04T11:33:16.080Z,19.65
2022-09-04T11:35:52.110Z,19.60
2022-09-04T11:38:28.461Z,18.73
2022-09-04T11:41:30.420Z,17.77
2022-09-04T11:44:38.072Z,69.63
2022-09-04T11:47:32.850Z,63.03
2022-09-04T11:50:17.672Z,36.05
2022-09-04T11:53:08.335Z,31.95
2022-09-04T11:56:07.986Z,32.78
2022-09-04T11:58:36.568Z,26.33
2022-09-04T12:01:22.474Z,22.52
2022-09-04T12:04:22.995Z,20.52
2022-09-04T12:07:12.424Z,16.52
2022-09-04T12:09:49.202Z,15.75
2022-09-04T12:12:22.800Z,17.27
2022-09-04T12:15:11.908Z,14.98
2022-09-04T12:18:21.137Z,17.05
2022-09-04T12:21:00.607Z,17.20
2022-09-04T12:23:30.867Z,12.27
2022-09-04T12:26:11.620Z,17.98
2022-09-04T12:29:04.115Z,20.33
2022-09-04T12:31:51.805Z,12.13
2022-09-04T12:34:28.027Z,11.57
2022-09-04T12:37:19.922Z,13.85
2022-09-04T12:39:55.695Z,11.38
2022-09-04T12:42:41.135Z,13.93
2022-09-04T12:45:46.870Z,14.52
2022-09-04T12:48:20.093Z,13.32
2022-09-04T12:51:14.906Z,12.75
2022-09-04T12:53:48.147Z,12.77
2022-09-04T12:56:43.920Z,15.98
2022-09-04T12:59:39.583Z,11.77
2022-09-04T13:02:31.632Z,9.73
2022-09-04T13:05:21.732Z,11.05
2022-09-04T13:08:18.831Z,10.90
2022-09-04T13:11:04.940Z,11.38
2022-09-04T13:14:09.986Z,10.63
2022-09-04T13:16:55.073Z,18.63
2022-09-04T13:19:50.125Z,13.00
2022-09-04T13:25:07.593Z,16.65
2022-09-04T13:27:57.547Z,13.90
2022-09-04T13:30:26.468Z,16.25
2022-09-04T13:33:12.735Z,13.40
2022-09-04T13:36:07.122Z,9.50
2022-09-04T13:38:43.787Z,13.13
2022-09-04T13:41:38.711Z,13.13
2022-09-04T13:46:59.614Z,13.60
2022-09-04T13:49:32.242Z,15.35
2022-09-04T13:52:24.335Z,14.30
2022-09-04T13:55:14.978Z,12.75
2022-09-04T13:57:49.931Z,12.07
2022-09-04T14:00:17.501Z,14.13
2022-09-04T14:02:47.590Z,15.00
2022-09-04T14:05:23.125Z,15.93
2022-09-04T14:08:02.847Z,15.88
2022-09-04T14:10:39.364Z,16.75
2022-09-04T14:13:37.688Z,17.65
2022-09-04T14:16:11.579Z,19.40
2022-09-04T14:19:15.608Z,18.98
2022-09-04T14:22:05.096Z,17.37
2022-09-04T14:24:48.384Z,17.45
2022-09-04T14:27:34.676Z,17.17
2022-09-04T14:30:14.653Z,16.45
2022-09-04T14:33:07.727Z,26.50
2022-09-04T14:35:47.632Z,29.67
2022-09-04T14:38:41.189Z,24.60
2022-09-04T14:41:36.176Z,39.08
2022-09-04T14:44:09.771Z,24.30
2022-09-04T14:47:00.732Z,27.37
2022-09-04T14:49:31.938Z,18.25
2022-09-04T14:52:14.523Z,15.30
2022-09-04T14:54:46.187Z,13.60
2022-09-04T14:57:29.599Z,12.75
2022-09-04T15:00:06.513Z,10.75
2022-09-04T15:03:07.747Z,8.93
2022-09-04T15:05:55.806Z,12.77
2022-09-04T15:08:41.821Z,12.18
2022-09-04T15:11:30.440Z,12.15
2022-09-04T15:14:19.380Z,12.15
2022-09-04T15:16:51.383Z,17.35
2022-09-04T15:19:28.337Z,9.98
2022-09-04T15:22:12.373Z,10.10
2022-09-04T15:24:54.630Z,14.65
2022-09-04T15:27:54.898Z,11.40
2022-09-04T15:30:25.587Z,9.25
2022-09-04T15:33:13.526Z,10.45
2022-09-04T15:35:41.711Z,9.40
2022-09-04T15:38:22.091Z,8.02
2022-09-04T15:41:15.744Z,8.13
2022-09-04T15:43:44.091Z,7.60
2022-09-04T15:46:29.721Z,10.13
2022-09-04T15:49:20.633Z,6.18
2022-09-04T15:52:10.252Z,6.65
2022-09-04T15:54:40.667Z,8.50
2022-09-04T15:57:17.373Z,9.45
2022-09-04T15:59:53.098Z,11.45
2022-09-04T16:02:38.500Z,10.82
2022-09-04T16:05:23.961Z,9.00
2022-09-04T16:08:20.486Z,17.63
2022-09-04T16:11:06.658Z,35.58
2022-09-04T16:13:59.149Z,28.05
2022-09-04T16:16:39.189Z,24.15
2022-09-04T16:19:17.714Z,39.53
2022-09-04T16:22:01.742Z,32.10
2022-09-04T16:24:42.515Z,23.55
2022-09-04T16:27:16.993Z,29.33
2022-09-04T16:29:53.232Z,22.80
2022-09-04T16:32:24.379Z,23.55
2022-09-04T16:35:07.964Z,25.67
2022-09-04T16:37:35.196Z,28.55
2022-09-04T16:40:24.421Z,28.98
2022-09-04T16:43:00.713Z,30.20
2022-09-04T16:45:38.899Z,40.85
2022-09-04T16:48:34.692Z,34.28
2022-09-04T16:51:40.362Z,29.88
2022-09-04T16:54:30.348Z,25.10
2022-09-04T16:57:17.195Z,25.40
2022-09-04T16:59:53.355Z,26.90
2022-09-04T17:02:55.210Z,20.73
2022-09-04T17:05:45.824Z,19.80
2022-09-04T17:08:34.822Z,21.08
2022-09-04T17:11:05.482Z,18.13
2022-09-04T17:13:55.451Z,20.98
2022-09-04T17:16:25.504Z,18.17
2022-09-04T17:18:55.410Z,15.30
2022-09-04T17:26:59.023Z,17.70
2022-09-04T17:29:08.630Z,16.30
2022-09-04T17:29:12.477Z,12.82
2022-09-04T17:31:33.229Z,18.50
2022-09-04T17:40:49.259Z,15.00
2022-09-04T17:40:51.300Z,13.15
2022-09-04T17:43:24.335Z,11.95
2022-09-04T17:46:17.183Z,13.38
2022-09-04T17:48:45.879Z,8.40
2022-09-04T17:51:28.061Z,11.75
2022-09-04T17:53:59.856Z,10.35
2022-09-04T17:56:53.467Z,6.18
2022-09-04T17:59:45.764Z,6.15
2022-09-04T18:02:17.686Z,10.68
2022-09-04T18:05:17.616Z,17.67
2022-09-04T18:08:11.804Z,17.77
2022-09-04T18:11:08.608Z,17.13
2022-09-04T18:13:45.207Z,15.85
2022-09-04T18:16:34.207Z,16.30
2022-09-04T18:19:38.702Z,13.68
2022-09-04T18:22:25.405Z,12.37
2022-09-04T18:25:17.765Z,6.88
2022-09-04T18:28:25.486Z,7.10
2022-09-04T18:37:05.179Z,5.85
2022-09-04T18:37:17.024Z,6.35
2022-09-04T18:37:20.414Z,7.47
2022-09-04T18:39:52.239Z,11.63
2022-09-04T18:50:35.128Z,12.25
2022-09-04T18:50:36.445Z,12.65
2022-09-04T18:50:40.194Z,12.40
2022-09-04T18:51:39.181Z,6.30
2022-09-04T18:54:19.579Z,9.50
2022-09-04T18:56:53.593Z,8.80
2022-09-04T18:59:32.694Z,9.60
2022-09-04T19:02:24.731Z,19.27
2022-09-04T19:05:11.217Z,15.00
2022-09-04T19:07:59.704Z,14.77
2022-09-04T19:10:34.592Z,11.02
2022-09-04T19:13:22.261Z,10.10
2022-09-04T19:16:01.905Z,7.55
2022-09-04T19:19:03.925Z,7.95
2022-09-04T19:21:41.951Z,8.25
2022-09-04T19:24:20.387Z,8.93
2022-09-04T19:26:56.279Z,5.28
2022-09-04T19:29:29.907Z,7.88
2022-09-04T19:32:31.843Z,10.75
2022-09-04T19:35:32.266Z,5.75
2022-09-04T19:45:55.212Z,11.02
2022-09-04T19:46:08.582Z,10.15
2022-09-04T19:46:15.174Z,14.68
2022-09-04T19:47:28.589Z,9.35
2022-09-04T19:53:31.986Z,9.15
2022-09-04T19:53:35.190Z,10.48
2022-09-04T19:55:46.980Z,7.97
2022-09-04T19:58:14.192Z,7.97
2022-09-04T20:00:57.802Z,8.77
2022-09-04T20:03:31.260Z,11.20
2022-09-04T20:06:21.595Z,13.80
2022-09-04T20:09:01.775Z,13.10
2022-09-04T20:11:35.919Z,12.05
2022-09-04T20:14:40.254Z,9.23
2022-09-04T20:17:34.864Z,10.15
2022-09-04T20:20:11.536Z,7.35
2022-09-04T20:23:04.561Z,7.93
2022-09-04T20:26:05.754Z,10.85
2022-09-04T20:28:48.539Z,7.13
2022-09-04T20:31:41.851Z,6.43
2022-09-04T20:34:29.077Z,6.15
2022-09-04T20:37:41.579Z,4.85
2022-09-04T20:40:40.229Z,8.38
2022-09-04T20:43:31.538Z,5.25
2022-09-04T20:51:29.345Z,9.07
2022-09-04T20:52:55.459Z,6.75
2022-09-04T20:53:05.331Z,4.60
2022-09-04T20:55:56.600Z,6.65
2022-09-04T21:03:11.480Z,3.60
2022-09-04T21:03:19.492Z,4.28
2022-09-04T21:05:38.858Z,9.02
2022-09-04T21:08:29.780Z,6.30
2022-09-04T21:11:40.571Z,4.93
2022-09-04T21:14:30.075Z,4.88
2022-09-04T21:17:37.333Z,4.32
2022-09-04T21:20:25.559Z,3.75
2022-09-04T21:23:14.962Z,4.65
2022-09-04T21:25:55.241Z,4.38
2022-09-04T21:28:39.155Z,4.85
2022-09-04T21:31:16.711Z,3.75
2022-09-04T21:34:09.759Z,4.00
2022-09-04T21:36:47.110Z,5.82
2022-09-04T21:39:32.777Z,4.65
2022-09-04T21:42:27.626Z,4.07
2022-09-04T21:45:18.933Z,3.00
2022-09-04T21:48:18.468Z,4.22
2022-09-04T21:51:28.908Z,4.10
2022-09-04T21:54:37.634Z,3.55
2022-09-04T22:02:35.358Z,2.92
2022-09-04T22:03:35.300Z,4.10
2022-09-04T22:07:20.889Z,3.22
2022-09-04T22:13:28.959Z,5.35
2022-09-04T22:13:41.681Z,3.53
2022-09-04T22:16:42.058Z,3.58
2022-09-04T22:19:45.490Z,6.22
2022-09-04T22:22:43.548Z,2.55
2022-09-04T22:25:28.076Z,3.63
2022-09-04T22:28:09.810Z,4.32
2022-09-04T22:30:58.486Z,3.30
2022-09-04T22:34:14.991Z,4.90
2022-09-04T22:37:14.022Z,3.92
2022-09-04T22:39:49.970Z,3.70
2022-09-04T22:42:35.840Z,5.85
2022-09-04T22:45:21.515Z,2.63
2022-09-04T22:48:06.636Z,3.60
2022-09-04T22:51:02.779Z,2.95
2022-09-04T22:54:01.561Z,3.58
2022-09-04T22:56:40.986Z,3.53
2022-09-04T22:59:30.088Z,3.35
2022-09-04T23:02:13.287Z,3.25
2022-09-04T23:04:53.402Z,3.42
2022-09-04T23:12:22.063Z,3.60
2022-09-04T23:13:51.185Z,3.70
2022-09-04T23:14:06.507Z,3.67
2022-09-04T23:16:45.130Z,3.30
2022-09-04T23:26:31.312Z,3.33
2022-09-04T23:26:43.384Z,3.78
2022-09-04T23:28:34.093Z,3.83
2022-09-04T23:31:37.522Z,4.03
2022-09-04T23:34:35.728Z,3.65
2022-09-04T23:37:26.858Z,2.90
2022-09-04T23:40:07.581Z,3.08
2022-09-04T23:42:38.885Z,3.20
2022-09-04T23:45:12.136Z,3.42
2022-09-04T23:47:49.754Z,4.50
2022-09-04T23:50:41.975Z,2.63
2022-09-04T23:53:33.875Z,3.28
2022-09-04T23:56:39.159Z,3.47
2022-09-04T23:59:37.773Z,3.10
